Time;durP1;ratioP1;P1;durP2;ratioP2;P2;SDS_P1;SDS_P2;PMS_P1;PMS_P2;Temp;Humidity;BMP_temperature;BMP_pressure;BME280_temperature;BME280_humidity;BME280_pressure;Samples;Min_cycle;Max_cycle;Signal;HPM_P1;HPM_P2
2022/08/19 00:01:34;;;;;;;4.30;3.90;;;;;;;;;;5017483;28;20045;-70
2022/08/19 00:04:01;;;;;;;6.93;3.97;;;;;;;;;;5017505;28;20038;-70
2022/08/19 00:06:29;;;;;;;5.97;4.10;;;;;;;;;;5017353;28;20107;-70
2022/08/19 00:08:55;;;;;;;5.40;4.85;;;;;;;;;;5017281;28;20484;-70
2022/08/19 00:11:22;;;;;;;6.40;4.70;;;;;;;;;;5016653;28;20072;-70
2022/08/19 00:13:49;;;;;;;5.55;4.60;;;;;;;;;;5017321;28;20037;-70
2022/08/19 00:16:20;;;;;;;5.70;4.95;;;;;;;;;;5017151;28;20081;-70
2022/08/19 00:18:46;;;;;;;5.13;4.35;;;;;;;;;;5016543;28;20520;-69
2022/08/19 00:21:14;;;;;;;4.25;3.85;;;;;;;;;;5016710;28;20147;-70
2022/08/19 00:23:40;;;;;;;6.20;4.75;;;;;;;;;;5016770;28;20040;-70
2022/08/19 00:26:06;;;;;;;6.47;4.38;;;;;;;;;;5016861;28;20145;-70
2022/08/19 00:28:34;;;;;;;5.25;4.32;;;;;;;;;;5016742;28;20038;-70
2022/08/19 00:31:02;;;;;;;5.03;4.05;;;;;;;;;;5016359;28;20037;-70
2022/08/19 00:33:32;;;;;;;5.50;4.28;;;;;;;;;;5017151;28;20140;-70
2022/08/19 00:35:58;;;;;;;4.57;4.15;;;;;;;;;;5016374;28;20180;-70
2022/08/19 00:38:25;;;;;;;5.18;4.35;;;;;;;;;;5016485;28;20050;-70
2022/08/19 00:40:51;;;;;;;5.53;4.22;;;;;;;;;;5016158;28;20080;-70
2022/08/19 00:43:20;;;;;;;4.60;4.20;;;;;;;;;;5015595;28;20046;-70
2022/08/19 00:45:47;;;;;;;4.50;4.10;;;;;;;;;;5016084;28;20041;-70
2022/08/19 00:48:13;;;;;;;5.57;4.50;;;;;;;;;;5016071;28;20042;-70
2022/08/19 00:50:40;;;;;;;5.28;4.10;;;;;;;;;;5016139;28;20048;-70
2022/08/19 00:53:06;;;;;;;5.25;3.85;;;;;;;;;;5015949;28;20060;-70
2022/08/19 00:55:33;;;;;;;5.00;4.35;;;;;;;;;;5016367;28;20519;-70
2022/08/19 00:58:04;;;;;;;7.43;4.45;;;;;;;;;;5015814;28;20048;-70
2022/08/19 01:00:35;;;;;;;4.90;4.50;;;;;;;;;;5016186;28;20042;-70
2022/08/19 01:03:01;;;;;;;4.90;4.50;;;;;;;;;;5015807;28;20046;-70
2022/08/19 01:05:28;;;;;;;4.93;4.35;;;;;;;;;;5016353;28;20048;-70
2022/08/19 01:08:00;;;;;;;7.63;4.95;;;;;;;;;;5016433;28;20061;-70
2022/08/19 01:10:28;;;;;;;5.32;4.70;;;;;;;;;;5016028;28;20484;-70
2022/08/19 01:12:55;;;;;;;4.93;4.43;;;;;;;;;;5015921;28;20129;-70
2022/08/19 01:15:23;;;;;;;5.85;5.15;;;;;;;;;;5016744;28;20045;-70
2022/08/19 01:17:50;;;;;;;8.10;5.50;;;;;;;;;;5016060;28;20050;-70
2022/08/19 01:20:20;;;;;;;6.38;5.78;;;;;;;;;;5015660;28;20057;-70
2022/08/19 01:22:48;;;;;;;7.28;4.93;;;;;;;;;;5016115;28;20120;-70
2022/08/19 01:25:16;;;;;;;5.88;5.28;;;;;;;;;;5015982;28;20041;-70
2022/08/19 01:27:45;;;;;;;5.50;5.00;;;;;;;;;;5015634;28;20476;-70
2022/08/19 01:30:22;;;;;;;9.45;5.82;;;;;;;;;;5015603;28;20484;-70
2022/08/19 01:32:48;;;;;;;6.55;5.57;;;;;;;;;;5015233;28;20416;-70
2022/08/19 01:35:16;;;;;;;8.20;5.20;;;;;;;;;;5015680;28;20041;-70
2022/08/19 01:37:44;;;;;;;6.00;4.95;;;;;;;;;;5015579;28;20046;-70
2022/08/19 01:40:10;;;;;;;5.65;5.15;;;;;;;;;;5015733;28;20065;-70
2022/08/19 01:42:37;;;;;;;6.03;5.40;;;;;;;;;;5015402;28;20046;-70
2022/08/19 01:45:03;;;;;;;6.32;5.70;;;;;;;;;;4998269;28;20416;-70
2022/08/19 01:47:29;;;;;;;7.80;6.05;;;;;;;;;;5015582;28;20084;-70
2022/08/19 01:49:55;;;;;;;6.63;5.88;;;;;;;;;;5015961;28;20050;-70
2022/08/19 01:52:21;;;;;;;8.57;5.85;;;;;;;;;;5014978;28;20046;-70
2022/08/19 01:54:47;;;;;;;6.40;5.80;;;;;;;;;;5015527;28;20557;-70
2022/08/19 01:57:14;;;;;;;9.73;6.47;;;;;;;;;;5015106;28;20046;-70
2022/08/19 01:59:41;;;;;;;8.07;5.90;;;;;;;;;;5015620;28;20059;-70
2022/08/19 02:02:08;;;;;;;6.30;5.60;;;;;;;;;;5015399;28;20495;-70
2022/08/19 02:04:37;;;;;;;6.20;5.60;;;;;;;;;;5015366;28;20179;-70
2022/08/19 02:07:03;;;;;;;7.32;6.20;;;;;;;;;;5015339;28;20053;-70
2022/08/19 02:09:31;;;;;;;8.45;6.28;;;;;;;;;;5015288;28;20506;-70
2022/08/19 02:11:57;;;;;;;11.13;6.68;;;;;;;;;;5015297;28;20042;-70
2022/08/19 02:14:23;;;;;;;7.05;6.35;;;;;;;;;;5015458;28;20535;-70
2022/08/19 02:16:49;;;;;;;6.32;5.72;;;;;;;;;;5014750;28;20092;-70
2022/08/19 02:19:16;;;;;;;6.57;5.97;;;;;;;;;;5015186;28;20099;-70
2022/08/19 02:21:43;;;;;;;6.65;5.93;;;;;;;;;;5014987;28;20046;-70
2022/08/19 02:24:09;;;;;;;7.72;6.43;;;;;;;;;;5015069;28;20062;-70
2022/08/19 02:26:35;;;;;;;7.43;6.45;;;;;;;;;;5014357;28;20396;-70
2022/08/19 02:29:01;;;;;;;7.95;6.60;;;;;;;;;;5013261;28;20046;-70
2022/08/19 02:31:28;;;;;;;7.90;7.10;;;;;;;;;;5015004;28;20116;-70
2022/08/19 02:33:55;;;;;;;8.05;6.88;;;;;;;;;;5013153;28;20042;-70
2022/08/19 02:36:21;;;;;;;8.43;6.43;;;;;;;;;;5013807;28;20041;-70
2022/08/19 02:38:48;;;;;;;7.95;6.38;;;;;;;;;;5014870;28;20038;-70
2022/08/19 02:41:18;;;;;;;10.38;6.45;;;;;;;;;;5015068;28;20084;-70
2022/08/19 02:43:44;;;;;;;6.78;6.07;;;;;;;;;;5014624;28;20468;-70
2022/08/19 02:46:20;;;;;;;6.97;6.28;;;;;;;;;;5014834;28;20037;-70
2022/08/19 02:48:47;;;;;;;7.22;6.47;;;;;;;;;;5014483;28;20042;-70
2022/08/19 02:51:18;;;;;;;8.38;7.18;;;;;;;;;;5014670;28;20046;-70
2022/08/19 02:53:44;;;;;;;7.45;6.63;;;;;;;;;;5014832;28;20041;-70
2022/08/19 02:56:10;;;;;;;7.45;6.55;;;;;;;;;;5014916;28;20117;-70
2022/08/19 02:58:36;;;;;;;10.23;6.78;;;;;;;;;;5014735;28;20049;-70
2022/08/19 03:01:02;;;;;;;8.63;6.90;;;;;;;;;;5014836;28;20504;-70
2022/08/19 03:03:29;;;;;;;8.13;6.95;;;;;;;;;;5014932;28;20030;-70
2022/08/19 03:06:05;;;;;;;8.15;7.05;;;;;;;;;;5016488;28;20061;-70
2022/08/19 03:08:32;;;;;;;7.85;6.85;;;;;;;;;;5018416;28;20101;-70
2022/08/19 03:10:58;;;;;;;13.18;7.40;;;;;;;;;;5017950;28;20412;-70
2022/08/19 03:13:25;;;;;;;10.55;6.88;;;;;;;;;;5018111;28;20052;-70
2022/08/19 03:15:51;;;;;;;8.68;7.43;;;;;;;;;;5017534;28;20044;-70
2022/08/19 03:18:17;;;;;;;8.68;7.13;;;;;;;;;;5018009;28;20037;-70
2022/08/19 03:20:45;;;;;;;8.20;7.38;;;;;;;;;;5017869;28;20038;-70
2022/08/19 03:23:12;;;;;;;8.07;7.28;;;;;;;;;;5018013;28;20041;-70
2022/08/19 03:25:43;;;;;;;10.23;7.00;;;;;;;;;;5023325;28;20044;-72
2022/08/19 03:28:10;;;;;;;7.30;6.60;;;;;;;;;;5033857;28;20100;-69
2022/08/19 03:30:36;;;;;;;10.30;7.15;;;;;;;;;;5028538;28;20045;-70
2022/08/19 03:33:02;;;;;;;9.43;7.03;;;;;;;;;;5037496;28;20060;-70
2022/08/19 03:35:28;;;;;;;7.72;6.93;;;;;;;;;;5034220;28;20112;-70
2022/08/19 03:37:56;;;;;;;10.55;7.20;;;;;;;;;;5036149;28;20100;-70
2022/08/19 03:40:22;;;;;;;7.50;6.72;;;;;;;;;;5036167;28;20048;-70
2022/08/19 03:42:49;;;;;;;11.38;6.85;;;;;;;;;;5037676;28;20034;-70
2022/08/19 03:45:16;;;;;;;8.55;6.80;;;;;;;;;;5037480;28;20111;-70
2022/08/19 03:47:42;;;;;;;8.77;6.85;;;;;;;;;;5036564;28;20045;-70
2022/08/19 03:50:08;;;;;;;7.50;6.78;;;;;;;;;;5035630;28;20103;-70
2022/08/19 03:52:35;;;;;;;8.40;6.80;;;;;;;;;;5036668;28;20104;-70
2022/08/19 03:55:02;;;;;;;7.80;6.57;;;;;;;;;;5036148;28;20094;-70
2022/08/19 03:57:28;;;;;;;7.97;6.10;;;;;;;;;;5036527;28;20045;-70
2022/08/19 03:59:54;;;;;;;8.85;6.65;;;;;;;;;;5035453;28;20522;-70
2022/08/19 04:02:21;;;;;;;11.20;6.30;;;;;;;;;;5036728;28;20041;-70
2022/08/19 04:04:47;;;;;;;8.35;6.63;;;;;;;;;;5036822;28;20037;-70
2022/08/19 04:07:21;;;;;;;8.50;6.35;;;;;;;;;;5036356;28;20057;-70
2022/08/19 04:09:47;;;;;;;6.90;5.53;;;;;;;;;;5037448;28;20034;-70
2022/08/19 04:12:13;;;;;;;9.10;6.13;;;;;;;;;;5036559;28;20037;-70
2022/08/19 04:14:39;;;;;;;7.57;6.50;;;;;;;;;;5037102;28;20042;-70
2022/08/19 04:17:06;;;;;;;8.20;6.13;;;;;;;;;;5036423;28;20049;-70
2022/08/19 04:19:32;;;;;;;9.50;5.50;;;;;;;;;;5036709;28;20041;-69
2022/08/19 04:21:59;;;;;;;9.52;5.70;;;;;;;;;;5036595;28;20041;-70
2022/08/19 04:24:25;;;;;;;8.10;5.82;;;;;;;;;;5036673;28;20072;-70
2022/08/19 04:26:51;;;;;;;6.65;5.47;;;;;;;;;;5036830;28;20076;-70
2022/08/19 04:29:24;;;;;;;6.80;5.93;;;;;;;;;;5037013;28;20044;-70
2022/08/19 04:31:51;;;;;;;7.32;5.15;;;;;;;;;;5035874;28;20033;-70
2022/08/19 04:34:22;;;;;;;6.47;5.20;;;;;;;;;;5036244;28;20068;-70
2022/08/19 04:36:50;;;;;;;;;;;;;;;;;;5036144;28;20547;-70
2022/08/19 04:39:18;;;;;;;7.13;5.78;;;;;;;;;;5036348;28;19920;-70
2022/08/19 04:44:34;;;;;;;6.18;5.57;;;;;;;;;;5035778;28;20040;-70
2022/08/19 04:47:00;;;;;;;6.88;5.20;;;;;;;;;;5036364;28;20053;-70
2022/08/19 04:49:27;;;;;;;6.03;5.10;;;;;;;;;;5036434;28;20037;-70
2022/08/19 04:51:54;;;;;;;7.82;5.75;;;;;;;;;;5035954;28;20038;-70
2022/08/19 04:54:22;;;;;;;7.18;5.10;;;;;;;;;;5035762;28;20171;-70
2022/08/19 04:56:49;;;;;;;7.78;5.78;;;;;;;;;;5036152;28;20055;-70
2022/08/19 04:59:16;;;;;;;7.45;5.10;;;;;;;;;;5035897;28;20124;-70
2022/08/19 05:01:43;;;;;;;5.78;5.13;;;;;;;;;;5035904;28;20512;-70
2022/08/19 05:04:09;;;;;;;5.75;5.25;;;;;;;;;;5035831;28;20069;-70
2022/08/19 05:06:36;;;;;;;7.07;5.18;;;;;;;;;;5035460;28;20057;-70
2022/08/19 05:09:06;;;;;;;6.03;4.55;;;;;;;;;;5036269;28;20554;-70
2022/08/19 05:11:34;;;;;;;5.75;5.15;;;;;;;;;;5035628;28;20090;-70
2022/08/19 05:14:00;;;;;;;7.18;4.78;;;;;;;;;;5035632;28;20033;-70
2022/08/19 05:16:27;;;;;;;6.43;5.25;;;;;;;;;;5035100;28;20056;-70
2022/08/19 05:24:24;;;;;;;6.25;4.65;;;;;;;;;;5034994;28;20040;-70
2022/08/19 05:26:52;;;;;;;6.45;4.93;;;;;;;;;;5034695;28;20068;-70
2022/08/19 05:29:21;;;;;;;5.90;4.88;;;;;;;;;;5034239;28;20030;-70
2022/08/19 05:31:51;;;;;;;7.97;4.97;;;;;;;;;;5035359;28;20045;-70
2022/08/19 05:34:18;;;;;;;6.70;4.55;;;;;;;;;;5035051;28;20041;-70
2022/08/19 05:36:45;;;;;;;5.55;4.65;;;;;;;;;;5034334;28;20075;-70
2022/08/19 05:39:13;;;;;;;5.85;4.53;;;;;;;;;;5034845;28;20041;-70
2022/08/19 05:41:46;;;;;;;9.00;5.45;;;;;;;;;;5035293;28;20128;-70
2022/08/19 05:44:12;;;;;;;6.35;4.82;;;;;;;;;;5035118;28;20045;-70
2022/08/19 05:46:39;;;;;;;6.22;4.05;;;;;;;;;;5034842;28;20042;-70
2022/08/19 05:49:08;;;;;;;5.07;4.28;;;;;;;;;;5034924;28;20040;-70
2022/08/19 05:51:35;;;;;;;5.22;4.22;;;;;;;;;;5034573;28;20041;-70
2022/08/19 05:54:02;;;;;;;5.88;4.43;;;;;;;;;;5035253;28;20056;-70
2022/08/19 05:56:30;;;;;;;7.40;4.25;;;;;;;;;;5034430;28;20049;-70
2022/08/19 05:58:56;;;;;;;5.32;4.28;;;;;;;;;;5034611;28;20124;-70
2022/08/19 06:01:22;;;;;;;5.53;3.95;;;;;;;;;;5034798;28;20053;-70
2022/08/19 06:03:49;;;;;;;4.70;3.95;;;;;;;;;;5034861;28;20484;-70
2022/08/19 06:06:16;;;;;;;5.63;4.15;;;;;;;;;;5034088;28;20081;-70
2022/08/19 06:08:48;;;;;;;4.75;4.35;;;;;;;;;;5034770;28;20056;-70
2022/08/19 06:11:14;;;;;;;5.97;4.57;;;;;;;;;;5034402;28;20102;-70
2022/08/19 06:13:40;;;;;;;5.70;4.57;;;;;;;;;;5034739;28;20072;-70
2022/08/19 06:16:06;;;;;;;5.63;4.30;;;;;;;;;;5034393;28;20045;-75
2022/08/19 06:18:33;;;;;;;3.95;3.55;;;;;;;;;;5034558;28;20041;-71
2022/08/19 06:21:04;;;;;;;5.88;4.13;;;;;;;;;;5034323;28;20044;-71
2022/08/19 06:23:30;;;;;;;7.07;3.78;;;;;;;;;;5034335;28;20118;-71
2022/08/19 06:25:56;;;;;;;3.33;3.03;;;;;;;;;;5034607;28;20045;-71
2022/08/19 06:28:23;;;;;;;4.13;2.80;;;;;;;;;;5033437;28;20075;-71
2022/08/19 06:30:51;;;;;;;4.53;2.97;;;;;;;;;;5033817;28;20044;-71
2022/08/19 06:33:17;;;;;;;3.35;2.53;;;;;;;;;;5034481;28;20496;-71
2022/08/19 06:35:43;;;;;;;3.95;3.10;;;;;;;;;;5034872;28;20037;-71
2022/08/19 06:38:09;;;;;;;4.85;3.30;;;;;;;;;;5034051;28;20432;-71
2022/08/19 06:40:37;;;;;;;3.00;2.70;;;;;;;;;;5036367;28;20571;-71
2022/08/19 06:43:03;;;;;;;3.67;3.10;;;;;;;;;;5036845;28;20072;-71
2022/08/19 06:45:30;;;;;;;3.30;3.00;;;;;;;;;;5039131;28;20091;-71
2022/08/19 06:47:56;;;;;;;3.90;2.63;;;;;;;;;;5038253;28;20107;-71
2022/08/19 06:50:25;;;;;;;3.10;2.72;;;;;;;;;;5037321;28;20053;-71
2022/08/19 06:52:51;;;;;;;3.17;2.80;;;;;;;;;;5038614;28;20044;-71
2022/08/19 06:55:17;;;;;;;3.85;2.60;;;;;;;;;;5036699;28;20045;-71
2022/08/19 06:57:45;;;;;;;3.25;2.83;;;;;;;;;;5037136;28;20152;-72
2022/08/19 07:00:14;;;;;;;3.70;2.83;;;;;;;;;;5037793;28;20160;-71
2022/08/19 07:02:41;;;;;;;3.00;2.67;;;;;;;;;;5037723;28;20045;-71
2022/08/19 07:05:08;;;;;;;2.55;2.33;;;;;;;;;;5038292;28;20045;-71
2022/08/19 07:07:34;;;;;;;2.70;2.20;;;;;;;;;;5037975;28;20115;-71
2022/08/19 07:10:00;;;;;;;3.38;2.63;;;;;;;;;;5038342;28;20544;-71
2022/08/19 07:12:28;;;;;;;4.18;2.10;;;;;;;;;;5038269;28;20041;-71
2022/08/19 07:14:54;;;;;;;2.60;2.40;;;;;;;;;;5038345;28;20045;-71
2022/08/19 07:17:20;;;;;;;2.42;2.03;;;;;;;;;;5038474;28;20510;-71
2022/08/19 07:19:46;;;;;;;3.85;1.90;;;;;;;;;;5037529;28;20120;-71
2022/08/19 07:22:13;;;;;;;2.38;1.73;;;;;;;;;;5037936;28;20045;-71
2022/08/19 07:24:39;;;;;;;2.00;1.77;;;;;;;;;;5037850;28;20037;-71
2022/08/19 07:27:06;;;;;;;3.03;1.90;;;;;;;;;;5038149;28;20099;-71
2022/08/19 07:29:33;;;;;;;2.05;1.65;;;;;;;;;;5037477;28;20041;-71
2022/08/19 07:32:01;;;;;;;2.63;2.22;;;;;;;;;;5037905;28;20046;-71
2022/08/19 07:34:28;;;;;;;1.67;1.58;;;;;;;;;;5037604;28;20041;-71
2022/08/19 07:36:55;;;;;;;3.15;1.92;;;;;;;;;;5036954;28;20041;-71
2022/08/19 07:39:29;;;;;;;1.30;1.20;;;;;;;;;;5037118;28;20672;-71
2022/08/19 07:41:55;;;;;;;1.60;1.50;;;;;;;;;;5037448;28;20127;-71
2022/08/19 07:44:22;;;;;;;1.40;1.30;;;;;;;;;;5037388;28;20033;-72
2022/08/19 07:46:51;;;;;;;1.63;1.00;;;;;;;;;;5037124;28;20073;-72
2022/08/19 07:49:19;;;;;;;1.17;1.10;;;;;;;;;;5037505;28;20040;-70
2022/08/19 07:51:55;;;;;;;1.48;1.27;;;;;;;;;;5036906;28;20081;-71
2022/08/19 07:54:22;;;;;;;1.55;1.30;;;;;;;;;;5038147;28;20041;-71
2022/08/19 07:56:49;;;;;;;1.83;1.20;;;;;;;;;;5036302;28;20049;-71
2022/08/19 07:59:17;;;;;;;1.45;1.20;;;;;;;;;;5036995;28;20102;-71
2022/08/19 08:01:43;;;;;;;1.17;1.08;;;;;;;;;;5036518;28;20069;-74
2022/08/19 08:09:41;;;;;;;1.33;1.00;;;;;;;;;;5037019;28;20041;-73
2022/08/19 08:12:07;;;;;;;1.30;1.20;;;;;;;;;;5036281;28;20069;-73
2022/08/19 08:14:36;;;;;;;1.02;1.02;;;;;;;;;;5037403;28;20069;-73
2022/08/19 08:17:02;;;;;;;1.33;1.20;;;;;;;;;;5036589;28;20049;-73
2022/08/19 08:19:29;;;;;;;2.17;1.00;;;;;;;;;;5036145;28;20046;-71
2022/08/19 08:21:56;;;;;;;1.33;1.23;;;;;;;;;;5036494;28;20041;-73
2022/08/19 08:24:23;;;;;;;2.28;2.08;;;;;;;;;;5036640;28;20068;-75
2022/08/19 08:26:49;;;;;;;1.90;1.80;;;;;;;;;;5036863;28;20045;-74
2022/08/19 08:29:15;;;;;;;3.15;2.85;;;;;;;;;;5035670;28;20499;-72
2022/08/19 08:31:42;;;;;;;2.88;2.65;;;;;;;;;;5035957;28;20053;-73
2022/08/19 08:34:09;;;;;;;3.70;3.22;;;;;;;;;;5034408;28;20510;-71
2022/08/19 08:36:42;;;;;;;3.50;3.20;;;;;;;;;;5034077;28;20041;-74
2022/08/19 08:39:13;;;;;;;3.95;3.13;;;;;;;;;;5035169;28;20568;-72
2022/08/19 08:41:40;;;;;;;3.75;3.20;;;;;;;;;;5035855;28;20042;-72
2022/08/19 08:44:07;;;;;;;2.83;2.60;;;;;;;;;;5036299;28;20038;-72
2022/08/19 08:46:39;;;;;;;2.65;2.35;;;;;;;;;;5036226;28;20050;-72
2022/08/19 08:49:11;;;;;;;3.28;2.58;;;;;;;;;;5036165;28;20041;-72
2022/08/19 08:51:41;;;;;;;3.58;3.10;;;;;;;;;;5036180;28;20103;-72
2022/08/19 08:54:08;;;;;;;3.80;2.95;;;;;;;;;;5035847;28;20037;-72
2022/08/19 08:56:34;;;;;;;3.67;2.85;;;;;;;;;;5036312;28;20073;-72
2022/08/19 08:59:03;;;;;;;3.47;3.17;;;;;;;;;;5035927;28;20075;-72
2022/08/19 09:01:29;;;;;;;4.18;2.83;;;;;;;;;;5035883;28;20091;-72
2022/08/19 09:03:56;;;;;;;4.35;3.60;;;;;;;;;;5035330;28;20065;-72
2022/08/19 09:06:30;;;;;;;3.30;3.00;;;;;;;;;;5034194;28;20058;-72
2022/08/19 09:09:04;;;;;;;5.05;2.83;;;;;;;;;;5019694;28;20049;-72
2022/08/19 09:11:30;;;;;;;5.63;2.55;;;;;;;;;;5015064;28;20045;-72
2022/08/19 09:14:10;;;;;;;3.78;2.50;;;;;;;;;;5015170;28;20038;-72
2022/08/19 09:16:40;;;;;;;2.78;2.50;;;;;;;;;;5016024;28;20052;-72
2022/08/19 09:19:07;;;;;;;4.13;2.83;;;;;;;;;;5014269;28;20041;-72
2022/08/19 09:21:34;;;;;;;3.70;3.38;;;;;;;;;;5015501;28;20053;-72
2022/08/19 09:24:01;;;;;;;4.05;2.80;;;;;;;;;;5015428;28;20036;-72
2022/08/19 09:26:27;;;;;;;3.03;2.78;;;;;;;;;;5015911;28;20046;-72
2022/08/19 09:28:54;;;;;;;3.55;3.00;;;;;;;;;;5015682;28;20037;-72
2022/08/19 09:31:23;;;;;;;3.78;2.92;;;;;;;;;;5015354;28;20041;-72
2022/08/19 09:33:49;;;;;;;3.75;2.83;;;;;;;;;;5015521;28;20030;-72
2022/08/19 09:36:18;;;;;;;3.67;3.03;;;;;;;;;;5015569;28;20492;-72
2022/08/19 09:38:45;;;;;;;4.78;3.45;;;;;;;;;;5015299;28;20092;-72
2022/08/19 09:41:16;;;;;;;4.20;3.40;;;;;;;;;;5015458;28;20045;-72
2022/08/19 09:43:45;;;;;;;3.58;3.20;;;;;;;;;;5015491;28;20049;-72
2022/08/19 09:46:11;;;;;;;4.50;3.17;;;;;;;;;;5015412;28;20076;-72
2022/08/19 09:48:38;;;;;;;3.80;3.28;;;;;;;;;;5015328;28;20499;-72
2022/08/19 09:51:09;;;;;;;3.83;3.33;;;;;;;;;;5015158;28;20171;-72
2022/08/19 09:53:35;;;;;;;4.05;3.65;;;;;;;;;;5015626;28;20046;-71
2022/08/19 09:56:02;;;;;;;3.20;2.90;;;;;;;;;;5015672;28;20041;-71
2022/08/19 09:58:29;;;;;;;3.80;3.50;;;;;;;;;;5015141;28;20082;-71
2022/08/19 10:00:58;;;;;;;5.22;3.90;;;;;;;;;;5015096;28;20064;-72
2022/08/19 10:03:24;;;;;;;5.43;3.80;;;;;;;;;;5015121;28;20120;-72
2022/08/19 10:05:51;;;;;;;4.20;3.40;;;;;;;;;;5014923;28;20050;-73
2022/08/19 10:08:19;;;;;;;4.28;3.60;;;;;;;;;;5015907;28;20037;-73
2022/08/19 10:10:45;;;;;;;3.88;3.42;;;;;;;;;;5015297;28;20049;-73
2022/08/19 10:13:12;;;;;;;7.10;3.67;;;;;;;;;;5016980;28;20041;-73
2022/08/19 10:15:41;;;;;;;3.63;3.33;;;;;;;;;;5033417;28;20483;-73
2022/08/19 10:18:08;;;;;;;5.15;3.83;;;;;;;;;;5034882;28;20033;-73
2022/08/19 10:20:35;;;;;;;5.32;4.00;;;;;;;;;;5034761;28;20107;-73
2022/08/19 10:23:02;;;;;;;3.97;3.58;;;;;;;;;;5033985;28;20109;-73
2022/08/19 10:25:29;;;;;;;4.07;3.78;;;;;;;;;;5034030;28;20054;-73
2022/08/19 10:27:55;;;;;;;5.35;4.53;;;;;;;;;;5034897;28;20045;-73
2022/08/19 10:30:22;;;;;;;4.40;3.97;;;;;;;;;;5034655;28;20033;-73
2022/08/19 10:32:48;;;;;;;4.95;3.97;;;;;;;;;;5033939;28;20037;-73
2022/08/19 10:35:15;;;;;;;5.82;4.30;;;;;;;;;;5034211;28;20045;-72
2022/08/19 10:37:41;;;;;;;4.68;4.07;;;;;;;;;;5035155;28;20041;-73
2022/08/19 10:40:10;;;;;;;4.78;4.18;;;;;;;;;;5034698;28;20041;-72
2022/08/19 10:42:36;;;;;;;6.43;4.35;;;;;;;;;;5033562;28;20040;-74
2022/08/19 10:45:02;;;;;;;4.00;3.53;;;;;;;;;;5034482;28;20049;-75
2022/08/19 10:47:28;;;;;;;4.75;4.35;;;;;;;;;;5034624;28;20073;-74
2022/08/19 10:52:42;;;;;;;3.83;3.42;;;;;;;;;;5034605;28;20075;-73
2022/08/19 10:57:53;;;;;;;5.40;3.63;;;;;;;;;;5014106;28;20056;-72
2022/08/19 11:00:23;;;;;;;4.60;4.05;;;;;;;;;;5014380;28;20050;-70
2022/08/19 11:02:50;;;;;;;5.22;4.00;;;;;;;;;;5014496;28;20033;-69
2022/08/19 11:05:17;;;;;;;5.03;3.45;;;;;;;;;;5020596;28;20295;-71
2022/08/19 11:07:44;;;;;;;7.55;3.78;;;;;;;;;;5033917;28;20536;-72
2022/08/19 11:10:11;;;;;;;6.07;4.30;;;;;;;;;;5025327;28;20080;-73
2022/08/19 11:12:39;;;;;;;5.15;4.28;;;;;;;;;;5033350;28;20115;-73
2022/08/19 11:15:05;;;;;;;4.57;4.13;;;;;;;;;;5022215;28;20049;-73
2022/08/19 11:17:32;;;;;;;4.40;3.78;;;;;;;;;;5033569;28;20132;-73
2022/08/19 11:19:59;;;;;;;5.03;4.05;;;;;;;;;;5033829;28;20045;-73
2022/08/19 11:22:25;;;;;;;4.45;4.00;;;;;;;;;;5033422;28;20034;-73
2022/08/19 11:24:51;;;;;;;4.45;4.05;;;;;;;;;;5034023;28;20113;-73
2022/08/19 11:27:17;;;;;;;6.07;4.05;;;;;;;;;;5036115;28;20130;-73
2022/08/19 11:29:44;;;;;;;4.53;4.13;;;;;;;;;;5037387;28;20041;-73
2022/08/19 11:32:12;;;;;;;3.72;3.35;;;;;;;;;;5036869;28;20041;-71
2022/08/19 11:34:40;;;;;;;5.65;3.42;;;;;;;;;;5037865;28;20045;-71
2022/08/19 11:37:08;;;;;;;4.35;3.38;;;;;;;;;;5036449;28;20080;-71
2022/08/19 11:39:36;;;;;;;4.43;3.50;;;;;;;;;;5017776;28;20200;-71
2022/08/19 11:42:54;;;;;;;5.68;3.28;;;;;;;;;;5025743;28;20046;-71
2022/08/19 11:44:49;;;;;;;3.60;3.30;;;;;;;;;;5036760;28;20033;-71
2022/08/19 11:47:15;;;;;;;4.75;4.22;;;;;;;;;;5036916;28;20048;-71
2022/08/19 11:49:42;;;;;;;4.57;3.75;;;;;;;;;;5037603;28;20041;-71
2022/08/19 11:52:08;;;;;;;6.07;3.85;;;;;;;;;;5036551;28;20059;-71
2022/08/19 11:54:35;;;;;;;7.68;3.83;;;;;;;;;;5037224;28;20116;-71
2022/08/19 11:57:02;;;;;;;5.57;4.25;;;;;;;;;;5036941;28;20056;-71
2022/08/19 11:59:29;;;;;;;4.65;3.60;;;;;;;;;;5036021;28;20053;-71
2022/08/19 12:01:55;;;;;;;7.70;4.18;;;;;;;;;;5036889;28;20496;-70
2022/08/19 12:04:22;;;;;;;4.18;3.60;;;;;;;;;;5035672;28;20073;-72
2022/08/19 12:06:49;;;;;;;5.95;4.15;;;;;;;;;;5036619;28;20060;-74
2022/08/19 12:09:17;;;;;;;4.97;4.20;;;;;;;;;;5030007;28;20076;-72
2022/08/19 12:11:43;;;;;;;4.00;3.65;;;;;;;;;;5036003;28;20049;-72
2022/08/19 12:14:13;;;;;;;6.00;3.88;;;;;;;;;;5035457;28;20124;-72
2022/08/19 12:16:41;;;;;;;5.30;4.25;;;;;;;;;;5029160;28;20049;-73
2022/08/19 12:19:07;;;;;;;3.78;3.47;;;;;;;;;;5016839;28;20044;-73
2022/08/19 12:21:35;;;;;;;5.00;3.88;;;;;;;;;;5033725;28;20496;-73
2022/08/19 12:24:02;;;;;;;3.75;3.35;;;;;;;;;;5035834;28;20033;-73
2022/08/19 12:26:31;;;;;;;5.15;3.85;;;;;;;;;;5035616;28;20072;-73
2022/08/19 12:28:59;;;;;;;3.55;3.17;;;;;;;;;;5035757;28;20118;-73
2022/08/19 12:31:25;;;;;;;3.80;3.17;;;;;;;;;;5035830;28;20115;-73
2022/08/19 12:33:52;;;;;;;4.20;3.65;;;;;;;;;;5035258;28;20130;-73
2022/08/19 12:36:18;;;;;;;4.80;3.35;;;;;;;;;;5035939;28;20043;-73
2022/08/19 12:38:46;;;;;;;5.50;3.03;;;;;;;;;;5034362;28;20077;-72
2022/08/19 12:41:13;;;;;;;4.10;2.72;;;;;;;;;;5033322;28;20037;-72
2022/08/19 12:43:40;;;;;;;3.40;2.88;;;;;;;;;;5034967;28;20120;-74
2022/08/19 12:46:07;;;;;;;3.25;2.95;;;;;;;;;;5035448;28;20124;-76
2022/08/19 12:48:34;;;;;;;4.93;3.47;;;;;;;;;;5036017;28;20484;-76
2022/08/19 12:51:01;;;;;;;3.53;3.17;;;;;;;;;;5035145;28;20037;-75
2022/08/19 12:53:28;;;;;;;5.47;3.72;;;;;;;;;;5034968;28;20430;-75
2022/08/19 12:55:59;;;;;;;4.57;3.83;;;;;;;;;;5035626;28;20116;-76
2022/08/19 12:58:25;;;;;;;;;;;;;;;;;;5035840;28;20045;-75
2022/08/19 13:00:51;;;;;;;7.65;4.53;;;;;;;;;;5033944;28;19920;-75
2022/08/19 13:03:17;;;;;;;4.75;4.28;;;;;;;;;;5035082;28;20166;-76
2022/08/19 13:05:44;;;;;;;7.38;4.25;;;;;;;;;;5034107;28;20052;-74
2022/08/19 13:08:11;;;;;;;6.70;4.68;;;;;;;;;;5035526;28;20045;-73
2022/08/19 13:10:38;;;;;;;5.53;4.70;;;;;;;;;;5035851;28;20042;-74
2022/08/19 13:13:09;;;;;;;7.97;5.75;;;;;;;;;;5036226;28;20033;-74
2022/08/19 13:15:36;;;;;;;6.03;4.78;;;;;;;;;;5016169;28;20412;-73
2022/08/19 13:18:03;;;;;;;5.00;4.22;;;;;;;;;;5035171;28;20128;-73
2022/08/19 13:20:29;;;;;;;5.88;5.28;;;;;;;;;;5034699;28;20103;-73
2022/08/19 13:22:56;;;;;;;6.38;5.22;;;;;;;;;;5035119;28;20496;-74
2022/08/19 13:25:23;;;;;;;7.65;4.38;;;;;;;;;;5035693;28;20045;-73
2022/08/19 13:27:50;;;;;;;5.13;4.28;;;;;;;;;;5034860;28;20048;-74
2022/08/19 13:33:22;;;;;;;5.63;4.78;;;;;;;;;;5034943;28;20088;-74
2022/08/19 13:35:48;;;;;;;6.68;4.70;;;;;;;;;;5034923;28;20046;-72
2022/08/19 13:38:15;;;;;;;5.38;4.65;;;;;;;;;;5034424;28;20040;-74
2022/08/19 13:40:41;;;;;;;6.30;4.85;;;;;;;;;;5035242;28;20053;-74
2022/08/19 13:43:09;;;;;;;7.57;4.72;;;;;;;;;;5035048;28;20120;-73
2022/08/19 13:45:35;;;;;;;7.20;4.45;;;;;;;;;;5034988;28;20508;-74
2022/08/19 13:48:06;;;;;;;6.50;4.97;;;;;;;;;;5034270;28;20041;-74
2022/08/19 13:50:32;;;;;;;8.13;4.97;;;;;;;;;;5034403;28;20043;-74
2022/08/19 13:52:59;;;;;;;8.38;4.88;;;;;;;;;;5035062;28;20068;-73
2022/08/19 13:55:26;;;;;;;7.60;4.35;;;;;;;;;;5034830;28;20053;-72
2022/08/19 13:57:56;;;;;;;5.40;4.78;;;;;;;;;;5034452;28;20045;-74
2022/08/19 14:00:24;;;;;;;7.15;4.88;;;;;;;;;;5033156;28;20049;-74
2022/08/19 14:02:52;;;;;;;6.85;5.03;;;;;;;;;;5034164;28;20029;-73
2022/08/19 14:05:19;;;;;;;6.15;4.47;;;;;;;;;;5034409;28;20053;-74
2022/08/19 14:07:45;;;;;;;5.47;4.13;;;;;;;;;;5034646;28;20103;-73
2022/08/19 14:10:12;;;;;;;5.97;4.05;;;;;;;;;;5035373;28;20073;-73
2022/08/19 14:12:41;;;;;;;6.72;4.43;;;;;;;;;;5035199;28;20111;-71
2022/08/19 14:15:08;;;;;;;6.28;4.78;;;;;;;;;;5033842;28;20041;-71
2022/08/19 14:17:34;;;;;;;4.70;4.20;;;;;;;;;;5034461;28;20103;-76
2022/08/19 14:20:04;;;;;;;5.03;4.07;;;;;;;;;;5033296;28;20045;-70
2022/08/19 14:22:30;;;;;;;7.10;4.18;;;;;;;;;;5033154;28;20037;-69
2022/08/19 14:24:59;;;;;;;9.00;4.13;;;;;;;;;;5033379;28;20091;-71
2022/08/19 14:27:25;;;;;;;4.55;4.10;;;;;;;;;;5034089;28;20495;-70
2022/08/19 14:29:52;;;;;;;5.05;3.95;;;;;;;;;;5034325;28;20045;-70
2022/08/19 14:32:18;;;;;;;6.38;4.20;;;;;;;;;;5034141;28;20408;-71
2022/08/19 14:34:47;;;;;;;7.88;4.57;;;;;;;;;;5034039;28;20042;-71
2022/08/19 14:37:14;;;;;;;4.95;4.20;;;;;;;;;;5034239;28;20045;-71
2022/08/19 14:39:40;;;;;;;5.00;4.20;;;;;;;;;;5034195;28;20034;-70
2022/08/19 14:42:08;;;;;;;4.68;4.10;;;;;;;;;;5034225;28;20038;-70
2022/08/19 14:44:34;;;;;;;4.82;3.75;;;;;;;;;;5033938;28;20499;-70
2022/08/19 14:47:00;;;;;;;5.35;4.18;;;;;;;;;;5034049;28;20053;-69
2022/08/19 14:49:26;;;;;;;8.35;4.47;;;;;;;;;;5033931;28;20120;-70
2022/08/19 14:51:53;;;;;;;4.25;3.70;;;;;;;;;;5034407;28;20124;-70
2022/08/19 14:54:19;;;;;;;4.68;3.67;;;;;;;;;;5033479;28;20043;-69
2022/08/19 14:56:45;;;;;;;5.28;3.58;;;;;;;;;;5014027;28;20053;-70
2022/08/19 14:59:11;;;;;;;5.15;3.80;;;;;;;;;;5014416;28;20099;-69
2022/08/19 15:01:37;;;;;;;7.68;4.18;;;;;;;;;;5017628;28;20046;-70
2022/08/19 15:04:04;;;;;;;4.78;3.60;;;;;;;;;;5037529;28;20045;-72
2022/08/19 15:06:31;;;;;;;6.55;4.00;;;;;;;;;;5037814;28;20152;-69